Flugplatz Leipzig Halle

Bericht für EDDP

vom 25.01. um 21:50 UTC

Wind 6 kt aus 200°

Sichtweite 4500 m

feuchter Dunst

bedeckt in 600 ft

Temperatur -1.0°C

Taupunkt -2.0°C

Luftfeuchtigkeit 93%

Luftdruck 1021 hPa

keine wesentliche Wetteränderung innerhalb den nächsten 2 Stunden zu erwarten

EDDP 252150Z 20006KT 4500 BR OVC006 M01/M02 Q1021 NOSIG

Prognose für EDDP

vom 25.01. um 00:00 UTC

Zwischen 00:00 UTC und 00:00 UTC

Wind 5 kt aus 210°

Sichtweite 5000 m

feuchter Dunst

bedeckt in 500 ft


Zwischen 00:00 UTC und 00:00 UTC zeitweise

Sichtweite 2000 m

feuchter Dunst

bedeckt in 200 ft


Zwischen 00:00 UTC und 00:00 UTC zeitweise mit einer Wahrscheinlichkeit von 30%

Sichtweite 600 m

Code: FZFG

aufgebrochene Bewölkung in 100 ft


Am 26.01. zwischen 00:00 und 00:00 UTC übergehend zu

Wind 5 kt aus 210°

Sichtweite 5000 m

feuchter Dunst

aufgelockert bewölkt in 1200 ft

TAF COR EDDP 251729Z 2518/2618 21005KT 5000 BR OVC005 TEMPO 2518/2610 2000 BR OVC002 PROB30 TEMPO 2518/2610 0600 FZFG BKN001 BECMG 2609/2612 SCT012
Impressum